Time;durP1;ratioP1;P1;durP2;ratioP2;P2;SDS_P1;SDS_P2;PMS_P1;PMS_P2;Temp;Humidity;BMP_temperature;BMP_pressure;BME280_temperature;BME280_humidity;BME280_pressure;Samples;Min_cycle;Max_cycle;Signal;HPM_P1;HPM_P2
2024/01/07 00:01:49;;;;;;;23.67;17.15;;;3.30;99.90;;;;;;5046980;28;20415;-64
2024/01/07 00:04:16;;;;;;;22.70;17.50;;;3.40;99.90;;;;;;5042452;28;20417;-64
2024/01/07 00:06:44;;;;;;;22.88;17.33;;;3.30;99.90;;;;;;5040802;28;20459;-64
2024/01/07 00:09:12;;;;;;;23.57;17.30;;;3.30;99.90;;;;;;5036023;28;20827;-64
2024/01/07 00:11:39;;;;;;;24.50;18.45;;;3.30;99.90;;;;;;5044289;28;20662;-64
2024/01/07 00:14:06;;;;;;;23.17;16.85;;;3.30;99.90;;;;;;5039364;28;20482;-64
2024/01/07 00:16:32;;;;;;;23.48;17.42;;;3.40;99.90;;;;;;5037160;28;20417;-64
2024/01/07 00:18:59;;;;;;;22.30;16.77;;;3.40;99.90;;;;;;5039257;28;20520;-64
2024/01/07 00:21:26;;;;;;;21.23;16.98;;;3.40;99.90;;;;;;5046286;28;20464;-63
2024/01/07 00:23:54;;;;;;;20.60;16.45;;;3.30;99.90;;;;;;5044021;28;20434;-63
2024/01/07 00:26:21;;;;;;;20.57;16.87;;;3.40;99.90;;;;;;5044904;28;20421;-63
2024/01/07 00:28:47;;;;;;;19.25;15.70;;;3.40;99.90;;;;;;5055302;28;20493;-63
2024/01/07 00:31:14;;;;;;;20.27;16.00;;;3.40;99.90;;;;;;5051177;28;20443;-65
2024/01/07 00:33:41;;;;;;;19.80;15.63;;;3.40;99.90;;;;;;5054277;28;20420;-64
2024/01/07 00:36:08;;;;;;;17.60;14.30;;;3.40;99.90;;;;;;5046386;28;20444;-64
2024/01/07 00:38:34;;;;;;;18.63;14.82;;;3.40;99.90;;;;;;5050719;28;20413;-63
2024/01/07 00:41:02;;;;;;;18.92;14.40;;;3.40;99.90;;;;;;5047883;28;20489;-63
2024/01/07 00:43:29;;;;;;;17.13;14.38;;;3.40;99.90;;;;;;5054218;28;20416;-64
2024/01/07 00:45:56;;;;;;;16.95;13.95;;;3.40;99.90;;;;;;5057020;28;20505;-65
2024/01/07 00:48:22;;;;;;;16.17;13.57;;;3.30;99.90;;;;;;5046003;28;20428;-64
2024/01/07 00:50:49;;;;;;;15.30;13.02;;;3.40;99.90;;;;;;5042112;28;20442;-65
2024/01/07 00:53:16;;;;;;;16.27;13.03;;;3.40;99.90;;;;;;5038138;28;20428;-65
2024/01/07 00:55:43;;;;;;;16.20;12.68;;;3.40;99.90;;;;;;5040576;28;20450;-65
2024/01/07 00:58:11;;;;;;;15.57;13.43;;;3.40;99.90;;;;;;5040453;28;20416;-65
2024/01/07 01:00:38;;;;;;;16.00;12.88;;;3.40;99.90;;;;;;5048005;28;20421;-63
2024/01/07 01:03:05;;;;;;;14.27;12.10;;;3.40;99.90;;;;;;5042006;28;20417;-63
2024/01/07 01:05:31;;;;;;;14.65;12.65;;;3.40;99.90;;;;;;5042889;28;20433;-65
2024/01/07 01:07:58;;;;;;;13.75;11.95;;;3.40;99.90;;;;;;5049095;28;20437;-63
2024/01/07 01:10:25;;;;;;;16.48;13.32;;;3.40;99.90;;;;;;5044080;28;20417;-64
2024/01/07 01:12:54;;;;;;;14.68;12.63;;;3.40;99.90;;;;;;5042475;28;20489;-65
2024/01/07 01:15:22;;;;;;;13.48;11.63;;;3.40;99.90;;;;;;5048463;28;20437;-65
2024/01/07 01:17:48;;;;;;;14.25;11.70;;;3.40;99.90;;;;;;5049258;28;20412;-65
2024/01/07 01:20:15;;;;;;;13.50;11.98;;;3.40;99.90;;;;;;5042934;28;20429;-65
2024/01/07 01:22:42;;;;;;;13.63;11.68;;;3.30;99.90;;;;;;5045612;28;20421;-65
2024/01/07 01:25:10;;;;;;;13.95;11.85;;;3.30;99.90;;;;;;5033085;28;20426;-66
2024/01/07 01:27:36;;;;;;;13.53;11.77;;;3.40;99.90;;;;;;5042848;28;20460;-65
2024/01/07 01:30:03;;;;;;;13.55;11.10;;;3.40;99.90;;;;;;5045281;28;20417;-65
2024/01/07 01:32:31;;;;;;;13.70;12.18;;;3.40;99.90;;;;;;5053173;28;20420;-64
2024/01/07 01:34:57;;;;;;;13.20;11.70;;;3.40;99.90;;;;;;5045146;28;20435;-64
2024/01/07 01:37:24;;;;;;;12.95;11.45;;;3.40;99.90;;;;;;5053230;28;20415;-64
2024/01/07 01:39:51;;;;;;;13.25;11.27;;;3.40;99.90;;;;;;5043401;28;20422;-65
2024/01/07 01:42:17;;;;;;;12.80;11.40;;;3.40;99.90;;;;;;5049151;28;20753;-66
2024/01/07 01:44:44;;;;;;;12.93;11.40;;;3.40;99.90;;;;;;5060067;28;20409;-65
2024/01/07 01:47:12;;;;;;;12.70;11.20;;;3.40;99.90;;;;;;5065274;28;20443;-65
2024/01/07 01:49:40;;;;;;;12.63;10.82;;;3.40;99.90;;;;;;5056318;28;20527;-65
2024/01/07 01:52:07;;;;;;;12.55;10.73;;;3.40;99.90;;;;;;5050218;28;20409;-65
2024/01/07 01:54:35;;;;;;;12.82;11.10;;;3.40;99.90;;;;;;5047533;28;20416;-65
2024/01/07 01:57:01;;;;;;;12.70;11.23;;;3.40;99.90;;;;;;5045560;28;20432;-65
2024/01/07 01:59:29;;;;;;;11.13;9.93;;;3.40;99.90;;;;;;5035300;28;20412;-65
2024/01/07 02:01:56;;;;;;;13.13;11.20;;;3.50;99.90;;;;;;5051691;28;20927;-68
2024/01/07 02:04:23;;;;;;;12.18;10.13;;;3.50;99.90;;;;;;5045295;28;20433;-65
2024/01/07 02:06:51;;;;;;;12.00;10.70;;;3.40;99.90;;;;;;5037412;28;20413;-63
2024/01/07 02:09:17;;;;;;;12.43;10.32;;;3.50;99.90;;;;;;5048087;28;20429;-63
2024/01/07 02:11:44;;;;;;;11.77;10.15;;;3.50;99.90;;;;;;5047355;28;20427;-63
2024/01/07 02:14:10;;;;;;;10.80;9.70;;;3.50;99.90;;;;;;5044631;28;20811;-65
2024/01/07 02:16:37;;;;;;;11.20;9.77;;;3.50;99.90;;;;;;5047046;28;21742;-63
2024/01/07 02:19:04;;;;;;;10.97;9.77;;;3.50;99.90;;;;;;5045660;28;20436;-65
2024/01/07 02:21:31;;;;;;;10.60;9.32;;;3.50;99.90;;;;;;5043822;28;20436;-65
2024/01/07 02:23:59;;;;;;;10.70;9.50;;;3.50;99.90;;;;;;5054286;28;20830;-64
2024/01/07 02:26:27;;;;;;;11.23;9.90;;;3.50;99.90;;;;;;5050935;28;20527;-64
2024/01/07 02:28:53;;;;;;;10.40;9.15;;;3.50;99.90;;;;;;5052412;28;20447;-63
2024/01/07 02:31:20;;;;;;;11.80;10.57;;;3.50;99.90;;;;;;5045673;28;20444;-63
2024/01/07 02:33:47;;;;;;;11.20;9.98;;;3.50;99.90;;;;;;5042792;28;20756;-63
2024/01/07 02:36:16;;;;;;;10.68;9.40;;;3.50;99.90;;;;;;5046862;28;20424;-63
2024/01/07 02:38:42;;;;;;;11.75;10.02;;;3.40;99.90;;;;;;5051595;28;20783;-63
2024/01/07 02:41:09;;;;;;;12.40;10.00;;;3.40;99.90;;;;;;5049513;28;20489;-64
2024/01/07 02:43:38;;;;;;;11.20;10.00;;;3.50;99.90;;;;;;5049982;28;20464;-63
2024/01/07 02:46:05;;;;;;;12.52;10.90;;;3.50;99.90;;;;;;5047408;28;20413;-64
2024/01/07 02:48:31;;;;;;;11.60;10.02;;;3.50;99.90;;;;;;5042212;28;20444;-64
2024/01/07 02:50:58;;;;;;;12.40;11.10;;;3.50;99.90;;;;;;5044977;28;20445;-63
2024/01/07 02:53:25;;;;;;;11.90;10.60;;;3.50;99.90;;;;;;5055696;28;20676;-63
2024/01/07 02:55:51;;;;;;;11.93;10.73;;;3.50;99.90;;;;;;5043045;28;20423;-63
2024/01/07 02:58:18;;;;;;;13.18;11.77;;;3.50;99.90;;;;;;5038202;28;20488;-63
2024/01/07 03:00:46;;;;;;;13.05;11.63;;;3.40;99.90;;;;;;5047877;28;20413;-63
2024/01/07 03:03:13;;;;;;;13.80;12.40;;;3.40;99.90;;;;;;5045615;28;20888;-65
2024/01/07 03:05:40;;;;;;;15.40;12.70;;;3.40;99.90;;;;;;5038384;28;20489;-64
2024/01/07 03:08:07;;;;;;;14.98;13.05;;;3.40;99.90;;;;;;5034472;28;20763;-63
2024/01/07 03:10:34;;;;;;;15.05;13.07;;;3.40;99.90;;;;;;5042414;28;20417;-63
2024/01/07 03:13:01;;;;;;;15.05;12.57;;;3.30;99.90;;;;;;5042045;28;20410;-63
2024/01/07 03:15:28;;;;;;;14.90;13.20;;;3.30;99.90;;;;;;5040601;28;20486;-63
2024/01/07 03:17:57;;;;;;;14.65;13.10;;;3.30;99.90;;;;;;5045454;28;20841;-63
2024/01/07 03:20:23;;;;;;;16.33;14.07;;;3.20;99.90;;;;;;5039540;28;20780;-63
2024/01/07 03:22:50;;;;;;;16.10;14.13;;;3.20;99.90;;;;;;5032795;28;20439;-63
2024/01/07 03:25:17;;;;;;;17.40;14.93;;;3.20;99.90;;;;;;5044401;28;20944;-64
2024/01/07 03:27:43;;;;;;;18.10;15.13;;;3.30;99.90;;;;;;5042464;28;20414;-64
2024/01/07 03:30:11;;;;;;;17.60;14.80;;;3.20;99.90;;;;;;5040319;28;20914;-68
2024/01/07 03:32:38;;;;;;;16.33;13.32;;;3.20;99.90;;;;;;5046282;28;20410;-63
2024/01/07 03:35:08;;;;;;;16.27;14.43;;;3.20;99.90;;;;;;5037555;28;20440;-63
2024/01/07 03:37:35;;;;;;;16.73;14.57;;;3.20;99.90;;;;;;5039224;28;20409;-63
2024/01/07 03:40:02;;;;;;;16.40;13.98;;;3.20;99.90;;;;;;5041088;28;20853;-63
2024/01/07 03:42:29;;;;;;;18.88;15.15;;;3.30;99.90;;;;;;5042864;28;20500;-64
2024/01/07 03:44:55;;;;;;;17.83;15.10;;;3.20;99.90;;;;;;5051262;28;20730;-63
2024/01/07 03:47:22;;;;;;;18.30;15.82;;;3.20;99.90;;;;;;5044145;28;20777;-62
2024/01/07 03:49:49;;;;;;;20.63;15.73;;;3.20;99.90;;;;;;5039907;28;20429;-63
2024/01/07 03:52:17;;;;;;;18.70;15.43;;;3.20;99.90;;;;;;5049072;28;20419;-63
2024/01/07 03:54:43;;;;;;;20.02;16.55;;;3.20;99.90;;;;;;5043276;28;20886;-63
2024/01/07 03:57:10;;;;;;;20.92;17.13;;;3.20;99.90;;;;;;5040955;28;20421;-64
2024/01/07 03:59:37;;;;;;;22.77;18.60;;;3.20;99.90;;;;;;5041552;28;20405;-63
2024/01/07 04:02:04;;;;;;;22.07;19.27;;;3.20;99.90;;;;;;5045708;28;20465;-65
2024/01/07 04:04:30;;;;;;;21.98;18.95;;;3.20;99.90;;;;;;5038853;28;20438;-64
2024/01/07 04:06:57;;;;;;;24.75;19.10;;;3.20;99.90;;;;;;5040926;28;20422;-63
2024/01/07 04:09:25;;;;;;;23.13;18.80;;;3.10;99.90;;;;;;5033265;28;20482;-63
2024/01/07 04:11:52;;;;;;;23.20;19.80;;;3.20;99.90;;;;;;5041607;28;20417;-63
2024/01/07 04:14:19;;;;;;;26.35;19.63;;;3.20;99.90;;;;;;5049842;28;20439;-65
2024/01/07 04:16:45;;;;;;;23.17;18.60;;;3.20;99.90;;;;;;5046126;28;20500;-64
2024/01/07 04:19:12;;;;;;;23.23;18.65;;;3.20;99.90;;;;;;5041523;28;20437;-65
2024/01/07 04:21:39;;;;;;;22.90;18.38;;;3.20;99.90;;;;;;5044388;28;20410;-64
2024/01/07 04:24:06;;;;;;;22.90;17.88;;;3.10;99.90;;;;;;5042738;28;20845;-64
2024/01/07 04:26:34;;;;;;;22.85;18.48;;;3.10;99.90;;;;;;5048161;28;20417;-65
2024/01/07 04:29:01;;;;;;;24.08;19.05;;;3.10;99.90;;;;;;5037751;28;20429;-63
2024/01/07 04:31:27;;;;;;;21.50;18.23;;;3.10;99.90;;;;;;5059550;28;20436;-63
2024/01/07 04:33:54;;;;;;;21.85;18.08;;;3.10;99.90;;;;;;5053607;28;20432;-63
2024/01/07 04:36:21;;;;;;;22.30;18.13;;;3.10;99.90;;;;;;5054313;28;20425;-66
2024/01/07 04:38:47;;;;;;;19.08;16.50;;;3.10;99.90;;;;;;5043949;28;20509;-63
2024/01/07 04:41:14;;;;;;;21.17;16.77;;;3.00;99.90;;;;;;5053413;28;20413;-63
2024/01/07 04:43:43;;;;;;;18.42;15.80;;;3.00;99.90;;;;;;5044900;28;20420;-63
2024/01/07 04:46:12;;;;;;;17.60;15.50;;;3.00;99.90;;;;;;5043522;28;20683;-63
2024/01/07 04:48:38;;;;;;;19.55;15.60;;;3.00;99.90;;;;;;5033127;28;20879;-63
2024/01/07 04:51:05;;;;;;;18.10;15.10;;;3.00;99.90;;;;;;5043399;28;20436;-63
2024/01/07 04:53:32;;;;;;;18.45;15.90;;;3.00;99.90;;;;;;5041913;28;20417;-63
2024/01/07 04:55:59;;;;;;;17.92;14.95;;;3.00;99.90;;;;;;5036884;28;20424;-63
2024/01/07 04:58:25;;;;;;;21.70;16.90;;;3.00;99.90;;;;;;5050636;28;20419;-63
2024/01/07 05:00:53;;;;;;;18.90;15.65;;;3.00;99.90;;;;;;5047769;28;20459;-63
2024/01/07 05:03:20;;;;;;;18.38;14.73;;;3.00;99.90;;;;;;5042710;28;20439;-63
2024/01/07 05:05:47;;;;;;;18.05;15.40;;;3.00;99.90;;;;;;5040047;28;20750;-63
2024/01/07 05:08:13;;;;;;;19.90;16.60;;;2.90;99.90;;;;;;5040858;28;20421;-63
2024/01/07 05:10:40;;;;;;;19.92;15.82;;;3.00;99.90;;;;;;5038628;28;20460;-64
2024/01/07 05:13:07;;;;;;;22.42;16.48;;;2.90;99.90;;;;;;5047062;28;20411;-64
2024/01/07 05:15:34;;;;;;;19.48;16.08;;;2.90;99.90;;;;;;5043956;28;20438;-64
2024/01/07 05:18:02;;;;;;;20.55;16.17;;;2.90;99.90;;;;;;5041673;28;20524;-63
2024/01/07 05:20:28;;;;;;;19.58;16.70;;;2.90;99.90;;;;;;5041330;28;20420;-64
2024/01/07 05:22:54;;;;;;;19.88;16.20;;;2.90;99.90;;;;;;5043914;28;20856;-64
2024/01/07 05:25:21;;;;;;;21.00;17.47;;;2.90;99.90;;;;;;5044132;28;20421;-64
2024/01/07 05:27:48;;;;;;;20.95;17.55;;;2.90;99.90;;;;;;5043165;28;20913;-64
2024/01/07 05:30:15;;;;;;;21.08;17.17;;;2.80;99.90;;;;;;5037343;28;20450;-64
2024/01/07 05:32:41;;;;;;;22.73;17.63;;;2.80;99.90;;;;;;5046645;28;20448;-65
2024/01/07 05:35:10;;;;;;;21.48;16.88;;;2.80;99.90;;;;;;5038076;28;20517;-62
2024/01/07 05:37:37;;;;;;;17.63;15.68;;;2.80;99.90;;;;;;5037639;28;20418;-65
2024/01/07 05:40:06;;;;;;;18.80;16.20;;;2.80;99.90;;;;;;5042291;28;20410;-64
2024/01/07 05:42:32;;;;;;;18.47;15.30;;;2.70;99.90;;;;;;5036372;28;21216;-63
2024/01/07 05:44:59;;;;;;;18.48;15.80;;;2.70;99.90;;;;;;5039395;28;20422;-62
2024/01/07 05:47:26;;;;;;;17.00;14.70;;;2.70;99.90;;;;;;5036828;28;20744;-62
2024/01/07 05:49:53;;;;;;;18.02;15.60;;;2.70;99.90;;;;;;5038925;28;20456;-64
2024/01/07 05:52:21;;;;;;;17.75;15.82;;;2.70;99.90;;;;;;5037420;28;20984;-64
2024/01/07 05:54:47;;;;;;;20.75;16.88;;;2.70;99.90;;;;;;5041659;28;20409;-63
2024/01/07 05:57:14;;;;;;;18.23;15.90;;;2.70;99.90;;;;;;5044247;28;20426;-63
2024/01/07 05:59:41;;;;;;;18.13;16.23;;;2.70;99.90;;;;;;5042153;28;20409;-63
2024/01/07 06:02:07;;;;;;;18.90;16.83;;;2.70;99.90;;;;;;5039086;28;20525;-63
2024/01/07 06:04:34;;;;;;;19.27;17.20;;;2.70;99.90;;;;;;5041844;28;20426;-63
2024/01/07 06:07:01;;;;;;;19.40;16.50;;;2.70;99.90;;;;;;5036854;28;21152;-63
2024/01/07 06:09:29;;;;;;;19.73;17.63;;;2.70;99.90;;;;;;5044490;28;20529;-63
2024/01/07 06:11:56;;;;;;;18.73;16.40;;;2.70;99.90;;;;;;5040370;28;20417;-63
2024/01/07 06:14:23;;;;;;;20.90;16.60;;;2.70;99.90;;;;;;5042433;28;20420;-62
2024/01/07 06:16:50;;;;;;;18.73;16.73;;;2.70;99.90;;;;;;5036354;28;20433;-63
2024/01/07 06:19:17;;;;;;;18.58;16.40;;;2.70;99.90;;;;;;5049513;28;20432;-63
2024/01/07 06:21:44;;;;;;;19.52;16.63;;;2.60;99.90;;;;;;5044197;28;20473;-63
2024/01/07 06:24:11;;;;;;;17.70;15.80;;;2.70;99.90;;;;;;5044875;28;20864;-63
2024/01/07 06:26:40;;;;;;;20.13;16.98;;;2.70;99.90;;;;;;5045534;28;20452;-63
2024/01/07 06:29:07;;;;;;;20.00;17.90;;;2.70;99.90;;;;;;5041266;28;20489;-63
2024/01/07 06:31:34;;;;;;;19.63;17.05;;;2.70;99.90;;;;;;5046384;28;20508;-63
2024/01/07 06:34:01;;;;;;;20.52;17.98;;;2.70;99.90;;;;;;5047418;28;20928;-63
2024/01/07 06:36:27;;;;;;;19.65;17.17;;;2.70;99.90;;;;;;5040307;28;20419;-63
2024/01/07 06:38:54;;;;;;;19.25;17.15;;;2.70;99.90;;;;;;5039888;28;20425;-64
2024/01/07 06:41:21;;;;;;;18.65;16.65;;;2.60;99.90;;;;;;5041718;28;20756;-63
2024/01/07 06:43:49;;;;;;;19.50;17.45;;;2.60;99.90;;;;;;5048934;28;20413;-63
2024/01/07 06:46:16;;;;;;;18.77;16.77;;;2.60;99.90;;;;;;5043134;28;20433;-66
2024/01/07 06:48:43;;;;;;;18.60;16.70;;;2.60;99.90;;;;;;5040740;28;20474;-63
2024/01/07 06:51:10;;;;;;;19.65;17.55;;;2.60;99.90;;;;;;5039337;28;20425;-63
2024/01/07 06:53:36;;;;;;;18.17;16.27;;;2.60;99.90;;;;;;5040888;28;20412;-63
2024/01/07 06:56:03;;;;;;;18.67;16.40;;;2.60;99.90;;;;;;5043631;28;20414;-62
2024/01/07 06:58:30;;;;;;;18.63;16.63;;;2.60;99.90;;;;;;5039721;28;20768;-63
2024/01/07 07:00:58;;;;;;;18.70;16.40;;;2.60;99.90;;;;;;5038137;28;20524;-63
2024/01/07 07:03:25;;;;;;;19.50;17.50;;;2.60;99.90;;;;;;5043646;28;20422;-63
2024/01/07 07:05:52;;;;;;;19.67;16.80;;;2.60;99.90;;;;;;5050253;28;20419;-63
2024/01/07 07:08:19;;;;;;;18.38;16.38;;;2.60;99.90;;;;;;5038120;28;20411;-65
2024/01/07 07:10:45;;;;;;;19.20;16.77;;;2.60;99.90;;;;;;5044312;28;20441;-63
2024/01/07 07:13:13;;;;;;;17.98;15.85;;;2.60;99.90;;;;;;5040428;28;20409;-63
2024/01/07 07:15:39;;;;;;;17.45;15.57;;;2.50;99.90;;;;;;5036871;28;20440;-65
2024/01/07 07:18:08;;;;;;;17.25;15.45;;;2.50;99.90;;;;;;5045148;28;20428;-63
2024/01/07 07:20:35;;;;;;;16.83;15.10;;;2.60;99.90;;;;;;5041348;28;20433;-63
2024/01/07 07:23:01;;;;;;;17.00;15.30;;;2.60;99.90;;;;;;5039455;28;20409;-63
2024/01/07 07:25:28;;;;;;;18.02;16.15;;;2.50;99.90;;;;;;5041780;28;20410;-63
2024/01/07 07:27:56;;;;;;;17.70;15.90;;;2.50;99.90;;;;;;5042150;28;20421;-63
2024/01/07 07:30:22;;;;;;;16.08;14.48;;;2.50;99.90;;;;;;5040705;28;20465;-71
2024/01/07 07:32:49;;;;;;;16.80;15.00;;;2.60;99.90;;;;;;5042994;28;20440;-63
2024/01/07 07:35:17;;;;;;;16.00;14.40;;;2.60;99.90;;;;;;5042913;28;20440;-63
2024/01/07 07:37:44;;;;;;;15.15;13.55;;;2.60;99.90;;;;;;5039944;28;20417;-62
2024/01/07 07:40:12;;;;;;;15.95;14.45;;;2.60;99.90;;;;;;5045268;28;20508;-64
2024/01/07 07:42:39;;;;;;;15.20;13.70;;;2.60;99.90;;;;;;5041657;28;20792;-64
2024/01/07 07:45:07;;;;;;;15.40;13.80;;;2.60;99.90;;;;;;5044685;28;20411;-65
2024/01/07 07:47:34;;;;;;;14.90;13.40;;;2.60;99.90;;;;;;5045264;28;20418;-64
2024/01/07 07:50:01;;;;;;;16.23;14.52;;;2.60;99.90;;;;;;5033215;28;20909;-64
2024/01/07 07:52:29;;;;;;;15.85;14.25;;;2.60;99.90;;;;;;5034233;28;20453;-63
2024/01/07 07:54:56;;;;;;;15.38;13.80;;;2.60;99.90;;;;;;5040136;28;20503;-63
2024/01/07 07:57:25;;;;;;;15.13;13.63;;;2.60;99.90;;;;;;5041764;28;20413;-63
2024/01/07 07:59:51;;;;;;;14.32;12.90;;;2.60;99.90;;;;;;5042063;28;20478;-63
2024/01/07 08:02:18;;;;;;;14.93;13.52;;;2.60;99.90;;;;;;5042910;28;20539;-63
2024/01/07 08:04:45;;;;;;;14.98;13.40;;;2.60;99.90;;;;;;5043707;28;20508;-63
2024/01/07 08:07:12;;;;;;;15.07;13.57;;;2.60;99.90;;;;;;5043486;28;20777;-63
2024/01/07 08:09:40;;;;;;;15.38;13.88;;;2.70;99.90;;;;;;5036014;28;20440;-63
2024/01/07 08:12:07;;;;;;;15.43;13.95;;;2.70;99.90;;;;;;5046428;28;20417;-64
2024/01/07 08:14:35;;;;;;;16.15;14.55;;;2.60;99.90;;;;;;5043873;28;20432;-64
2024/01/07 08:17:03;;;;;;;15.30;13.80;;;2.60;99.90;;;;;;5041486;28;20444;-64
2024/01/07 08:19:30;;;;;;;14.70;13.20;;;2.60;99.90;;;;;;5049221;28;20443;-64
2024/01/07 08:21:57;;;;;;;15.18;13.57;;;2.60;99.90;;;;;;5070123;22;20460;-71
2024/01/07 08:24:24;;;;;;;15.07;13.57;;;2.70;99.90;;;;;;5042541;28;20466;-70
2024/01/07 08:26:52;;;;;;;14.60;13.20;;;2.60;99.90;;;;;;5041608;28;20452;-71
2024/01/07 08:29:19;;;;;;;15.63;14.02;;;2.70;99.90;;;;;;5045729;28;20890;-71
2024/01/07 08:31:46;;;;;;;14.27;12.90;;;2.70;99.90;;;;;;5039680;28;20441;-71
2024/01/07 08:34:13;;;;;;;15.38;13.88;;;2.70;99.90;;;;;;5026666;28;20418;-70
2024/01/07 08:36:40;;;;;;;15.40;13.90;;;2.70;99.90;;;;;;5019279;28;20419;-69
2024/01/07 08:39:07;;;;;;;14.00;12.60;;;2.70;99.90;;;;;;5025255;28;20407;-74
2024/01/07 08:41:34;;;;;;;18.50;15.57;;;2.70;99.90;;;;;;5026351;28;20469;-64
2024/01/07 08:44:02;;;;;;;15.90;14.30;;;2.70;99.90;;;;;;5023545;28;20956;-71
2024/01/07 08:46:28;;;;;;;16.00;14.40;;;2.70;99.90;;;;;;5025183;28;20439;-71
2024/01/07 08:48:55;;;;;;;14.80;13.30;;;2.70;99.90;;;;;;5025473;28;20434;-77
2024/01/07 08:51:21;;;;;;;15.30;13.70;;;2.70;99.90;;;;;;5026750;28;20534;-72
2024/01/07 08:53:48;;;;;;;16.08;14.38;;;2.70;99.90;;;;;;5026812;28;20423;-72
2024/01/07 08:56:15;;;;;;;16.58;14.88;;;2.70;99.90;;;;;;5022126;28;20469;-72
2024/01/07 08:58:42;;;;;;;15.77;14.13;;;2.70;99.90;;;;;;5026486;28;20585;-72
2024/01/07 09:01:10;;;;;;;15.75;14.15;;;2.70;99.90;;;;;;5027702;28;20968;-71
2024/01/07 09:03:37;;;;;;;16.33;14.63;;;2.70;99.90;;;;;;5025481;28;20423;-72
2024/01/07 09:06:04;;;;;;;15.10;13.50;;;2.70;99.90;;;;;;5028081;28;20797;-72
2024/01/07 09:08:31;;;;;;;17.17;15.48;;;2.70;99.90;;;;;;5024868;28;20419;-72
2024/01/07 09:11:00;;;;;;;16.75;15.05;;;2.70;99.90;;;;;;5022594;28;20434;-71
2024/01/07 09:13:26;;;;;;;16.20;14.50;;;2.60;99.90;;;;;;5021734;28;20441;-72
2024/01/07 09:15:53;;;;;;;15.98;14.27;;;2.60;99.90;;;;;;5022572;28;20428;-71
2024/01/07 09:18:22;;;;;;;16.00;14.30;;;2.60;99.90;;;;;;5021441;28;20449;-72
2024/01/07 09:20:48;;;;;;;16.38;14.70;;;2.60;99.90;;;;;;5024779;28;20516;-72
2024/01/07 09:23:16;;;;;;;15.70;14.00;;;2.60;99.90;;;;;;5021120;28;20454;-73
2024/01/07 09:25:43;;;;;;;15.68;14.07;;;2.50;99.90;;;;;;5024036;28;20555;-73
2024/01/07 09:28:09;;;;;;;15.10;13.50;;;2.50;99.90;;;;;;5022323;28;20466;-71
2024/01/07 09:30:36;;;;;;;15.70;13.73;;;2.50;99.90;;;;;;5024523;28;20445;-72
2024/01/07 09:33:03;;;;;;;16.58;14.88;;;2.50;99.90;;;;;;5021400;28;20432;-71
2024/01/07 09:35:31;;;;;;;16.20;14.35;;;2.50;99.90;;;;;;5021747;28;20431;-72
2024/01/07 09:37:58;;;;;;;16.48;14.45;;;2.50;99.90;;;;;;5021211;28;20442;-71
2024/01/07 09:40:24;;;;;;;15.77;14.18;;;2.60;99.90;;;;;;5023586;28;20435;-72
2024/01/07 09:42:51;;;;;;;14.50;13.00;;;2.60;99.90;;;;;;5026998;28;20410;-72
2024/01/07 09:45:20;;;;;;;13.80;12.40;;;2.60;99.90;;;;;;5018402;28;20434;-72
2024/01/07 09:47:47;;;;;;;14.20;12.70;;;2.60;99.90;;;;;;5022655;28;20438;-72
2024/01/07 09:50:14;;;;;;;12.98;11.68;;;2.50;99.90;;;;;;5025464;28;20832;-72
2024/01/07 09:52:44;;;;;;;13.20;11.90;;;2.50;99.90;;;;;;5026747;28;20438;-72
2024/01/07 09:55:15;;;;;;;12.65;11.45;;;2.60;99.90;;;;;;5026931;28;20439;-73
2024/01/07 09:57:45;;;;;;;12.95;11.75;;;2.60;99.90;;;;;;5028680;28;20430;-72
2024/01/07 10:00:13;;;;;;;11.90;10.80;;;2.60;99.90;;;;;;5028241;28;20407;-72
2024/01/07 10:02:41;;;;;;;11.32;10.32;;;2.60;99.90;;;;;;5028795;28;21114;-71
2024/01/07 10:05:08;;;;;;;10.70;9.70;;;2.70;99.90;;;;;;5028350;28;20775;-72
2024/01/07 10:07:35;;;;;;;9.95;9.05;;;2.70;99.90;;;;;;5028947;28;20426;-73
2024/01/07 10:10:14;;;;;;;9.20;8.40;;;2.80;99.90;;;;;;5027857;28;20918;-72
2024/01/07 10:12:40;;;;;;;10.50;9.50;;;2.80;99.90;;;;;;5028127;28;20433;-72
2024/01/07 10:15:08;;;;;;;11.10;10.10;;;2.80;99.90;;;;;;5028722;28;20418;-72
2024/01/07 10:17:35;;;;;;;10.35;9.45;;;2.80;99.90;;;;;;5020159;28;20504;-72
2024/01/07 10:20:02;;;;;;;10.30;9.40;;;2.90;99.90;;;;;;5026606;28;20417;-73
2024/01/07 10:22:30;;;;;;;10.00;9.10;;;2.90;99.90;;;;;;5025571;28;20546;-72
2024/01/07 10:24:57;;;;;;;9.25;8.45;;;2.90;99.90;;;;;;5023132;28;20929;-72
2024/01/07 10:27:25;;;;;;;8.98;8.18;;;2.90;99.90;;;;;;5022456;28;20445;-71
2024/01/07 10:29:55;;;;;;;8.80;8.10;;;2.90;99.90;;;;;;5026739;28;20570;-71
2024/01/07 10:32:21;;;;;;;8.70;7.90;;;2.80;99.90;;;;;;5026559;28;20458;-72
2024/01/07 10:34:49;;;;;;;10.27;9.35;;;2.90;99.90;;;;;;5025338;28;20434;-71
2024/01/07 10:37:16;;;;;;;10.50;9.50;;;2.90;99.90;;;;;;5028874;28;20414;-71
2024/01/07 10:39:43;;;;;;;10.10;9.20;;;2.90;99.90;;;;;;5027518;28;20936;-70
2024/01/07 10:42:11;;;;;;;10.38;9.38;;;2.90;99.90;;;;;;5034892;28;20407;-70
2024/01/07 10:44:39;;;;;;;10.80;9.80;;;2.90;99.90;;;;;;5028358;28;20414;-71
2024/01/07 10:47:08;;;;;;;11.33;10.23;;;2.90;99.90;;;;;;5026759;28;20939;-72
2024/01/07 10:49:37;;;;;;;11.63;10.43;;;2.90;99.90;;;;;;5031864;28;20413;-71
2024/01/07 10:52:06;;;;;;;11.77;10.67;;;3.00;99.90;;;;;;5026849;28;20502;-72
2024/01/07 10:54:34;;;;;;;11.45;10.35;;;3.10;99.90;;;;;;5022303;28;20951;-70
2024/01/07 10:57:05;;;;;;;10.80;9.80;;;3.00;99.90;;;;;;5028576;28;20906;-72
2024/01/07 10:59:34;;;;;;;11.55;10.45;;;3.00;99.90;;;;;;5026438;28;20447;-71
2024/01/07 11:02:03;;;;;;;12.65;11.45;;;3.10;99.90;;;;;;5028301;28;20474;-71
2024/01/07 11:04:38;;;;;;;12.80;11.60;;;3.10;99.90;;;;;;5026749;28;20429;-71
2024/01/07 11:07:14;;;;;;;13.88;12.57;;;3.20;99.90;;;;;;5028461;28;20419;-70
2024/01/07 11:09:48;;;;;;;12.95;11.65;;;3.30;99.90;;;;;;5028225;28;20429;-72
2024/01/07 11:12:15;;;;;;;13.38;12.15;;;3.30;99.90;;;;;;5021653;28;20442;-71
2024/01/07 11:14:45;;;;;;;13.55;12.25;;;3.20;99.90;;;;;;5022889;28;20791;-72
2024/01/07 11:17:14;;;;;;;13.80;12.40;;;3.20;99.90;;;;;;5019644;28;20443;-74
2024/01/07 11:19:51;;;;;;;13.43;12.23;;;3.10;99.90;;;;;;5020405;28;21411;-72
2024/01/07 11:22:27;;;;;;;14.50;13.10;;;3.10;99.90;;;;;;5021355;28;20433;-72
2024/01/07 11:24:55;;;;;;;14.70;13.27;;;3.20;99.90;;;;;;5022242;28;20446;-72
2024/01/07 11:27:23;;;;;;;14.00;12.60;;;3.20;99.90;;;;;;5022933;28;20439;-72
2024/01/07 11:29:56;;;;;;;14.55;13.05;;;3.30;99.90;;;;;;5021494;28;20442;-72
2024/01/07 11:32:26;;;;;;;13.95;12.65;;;3.30;99.90;;;;;;5022774;28;20438;-71
2024/01/07 11:34:53;;;;;;;13.65;12.40;;;3.30;99.90;;;;;;5027268;28;20419;-71
2024/01/07 11:37:21;;;;;;;14.40;13.10;;;3.20;99.90;;;;;;5023679;28;20439;-72
2024/01/07 11:39:52;;;;;;;14.30;12.90;;;3.20;99.90;;;;;;5023658;28;20462;-71
2024/01/07 11:42:18;;;;;;;14.48;13.18;;;3.10;99.90;;;;;;5027290;28;20502;-71
2024/01/07 11:44:49;;;;;;;14.60;13.30;;;3.10;99.90;;;;;;5026376;28;20964;-73
2024/01/07 11:47:16;;;;;;;15.13;13.63;;;3.10;99.90;;;;;;5024653;28;20419;-72
2024/01/07 11:49:44;;;;;;;14.38;12.98;;;3.10;99.90;;;;;;5021437;28;20442;-71
2024/01/07 11:52:11;;;;;;;13.60;12.30;;;3.10;99.90;;;;;;5027667;28;20859;-72
2024/01/07 11:54:38;;;;;;;14.20;12.80;;;3.00;99.90;;;;;;5027549;28;20417;-72
2024/01/07 11:57:05;;;;;;;14.70;13.30;;;3.00;99.90;;;;;;5023662;28;20455;-72
2024/01/07 11:59:32;;;;;;;13.43;12.13;;;3.00;99.90;;;;;;5024900;28;20442;-71
2024/01/07 12:02:01;;;;;;;14.27;12.98;;;2.90;99.90;;;;;;5027361;28;20435;-74
2024/01/07 12:04:29;;;;;;;14.55;13.20;;;2.90;99.90;;;;;;5024528;28;20717;-72
2024/01/07 12:06:57;;;;;;;14.40;13.00;;;2.80;99.90;;;;;;5029957;28;20470;-72
2024/01/07 12:09:23;;;;;;;13.57;12.27;;;2.80;99.90;;;;;;5026942;28;20453;-73
2024/01/07 12:11:50;;;;;;;12.93;11.63;;;2.80;99.90;;;;;;5027268;28;20435;-71
2024/01/07 12:14:19;;;;;;;13.73;12.38;;;2.70;99.90;;;;;;5027066;28;20411;-72
2024/01/07 12:16:46;;;;;;;13.77;12.38;;;2.70;99.90;;;;;;5025361;28;20430;-73
2024/01/07 12:19:13;;;;;;;13.80;12.50;;;2.70;99.90;;;;;;5025396;28;20431;-72
2024/01/07 12:21:41;;;;;;;12.80;11.60;;;2.70;99.90;;;;;;5026439;28;20766;-73
2024/01/07 12:24:09;;;;;;;13.32;12.02;;;2.70;99.90;;;;;;5023030;28;20438;-73
2024/01/07 12:26:37;;;;;;;12.98;11.77;;;2.70;99.90;;;;;;5025599;28;20407;-72
2024/01/07 12:29:04;;;;;;;12.75;11.55;;;2.70;99.90;;;;;;5026152;28;20423;-72
2024/01/07 12:31:32;;;;;;;13.50;12.23;;;2.70;99.90;;;;;;5027011;28;20427;-71
2024/01/07 12:33:59;;;;;;;12.40;11.27;;;2.70;99.90;;;;;;5025651;28;20434;-73
2024/01/07 12:36:25;;;;;;;12.95;11.75;;;2.70;99.90;;;;;;5025746;28;20437;-73
2024/01/07 12:38:54;;;;;;;13.10;11.80;;;2.70;99.90;;;;;;5024956;28;20914;-73